McNary Field Salem US
ICAO: KSLE
IATA: SLE
Category: Medium
Scheduled Services: No

Elevation: 214 ft
TransAlt. 18000 ft.

Airport Communications:
ATIS:124.55
SEATTLE CNTR:125.8
CTAF:119.1
GND:121.9
MC MINNVILLE RDO:122.6
SALEM TWR:119.1
UNICOM:122.95

KSLE Zoom In..

If you have problems with the map follow the link
https://www.worldairports.se/pages/airport.php?
ICAO=KSLE

Runways:

(A) RW 13 length 5811 ft width 150 ft
---- / hdg 133

(B) RW 16 length 5145 ft width 100 ft
---- / hdg 164

(C) RW 31 length 5811 ft width 150 ft
ILS 110.30 / hdg 313

(D) RW 34 length 5145 ft width 100 ft
---- / hdg 344

Location; KSLE
Day. 12 / Time. 23.56 Zulu
* Altimeter: 30.08
* Temperature: 11° c. 51.8°f.
* Wind from: 220° Speed 03 kn.
Dewpoint: 07° c.
Visibility: 10 Statute Miles.
Clouds: Scattered 3000 ft.
Clouds: Broken 6000 ft.
Clouds: Overcast 8000 ft.
Conditions: Light Rain.

KSLE 122356Z 22003KT 10SM -RA SCT030 BKN060 OVC080 11/07 A3008 RMK AO2 RAB53 SLP186 P0000 60023 T01060072 10117 20100 53024


Wind From 220°
Speed 03 kn.

 
 
jpsmedia worldairports.se 2019   terms of use